Time;durP1;ratioP1;P1;durP2;ratioP2;P2;SDS_P1;SDS_P2;PMS_P1;PMS_P2;Temp;Humidity;BMP_temperature;BMP_pressure;BME280_temperature;BME280_humidity;BME280_pressure;Samples;Min_cycle;Max_cycle;Signal;HPM_P1;HPM_P2
2021/08/12 00:01:07;;;;;;;9.20;5.32;;;15.90;97.50;;;;;;5044991;28;20028;-71
2021/08/12 00:03:33;;;;;;;8.25;4.97;;;15.90;97.50;;;;;;5056930;28;20380;-71
2021/08/12 00:05:58;;;;;;;9.73;4.88;;;15.90;97.60;;;;;;5054670;28;20029;-71
2021/08/12 00:08:24;;;;;;;8.43;5.05;;;16.00;97.60;;;;;;5040678;28;20036;-71
2021/08/12 00:10:50;;;;;;;9.57;4.78;;;16.00;97.50;;;;;;5044985;28;20032;-72
2021/08/12 00:13:17;;;;;;;8.90;4.90;;;16.00;97.40;;;;;;5054061;28;20037;-71
2021/08/12 00:15:43;;;;;;;12.32;4.82;;;15.90;97.50;;;;;;5046170;28;20295;-71
2021/08/12 00:18:09;;;;;;;10.30;5.00;;;15.90;97.50;;;;;;5045914;28;20033;-71
2021/08/12 00:20:34;;;;;;;9.10;5.40;;;15.90;97.50;;;;;;5041235;28;20029;-71
2021/08/12 00:23:00;;;;;;;10.10;5.32;;;16.00;97.50;;;;;;5056182;28;20021;-71
2021/08/12 00:25:26;;;;;;;12.43;5.45;;;16.00;97.50;;;;;;5045008;28;20029;-71
2021/08/12 00:27:51;;;;;;;8.10;4.72;;;16.00;97.50;;;;;;5055441;28;20037;-72
2021/08/12 00:30:17;;;;;;;8.55;4.97;;;15.90;97.40;;;;;;5053305;28;20180;-71
2021/08/12 00:32:42;;;;;;;8.38;4.85;;;15.90;97.60;;;;;;5035380;28;20040;-71
2021/08/12 00:35:09;;;;;;;8.88;5.38;;;16.00;97.50;;;;;;5046847;28;20068;-71
2021/08/12 00:37:34;;;;;;;10.63;5.28;;;16.00;97.40;;;;;;5036389;28;20408;-71
2021/08/12 00:40:00;;;;;;;7.80;4.80;;;16.00;97.50;;;;;;5036344;28;20107;-71
2021/08/12 00:42:26;;;;;;;10.00;5.70;;;16.00;97.40;;;;;;5050021;28;20072;-71
2021/08/12 00:44:51;;;;;;;10.40;5.72;;;15.90;97.50;;;;;;5043706;28;20318;-71
2021/08/12 00:47:17;;;;;;;9.85;5.65;;;15.90;97.50;;;;;;5042806;28;20036;-71
2021/08/12 00:49:43;;;;;;;10.00;5.50;;;15.70;97.60;;;;;;5037187;28;20043;-71
2021/08/12 00:52:10;;;;;;;12.18;5.55;;;15.70;97.70;;;;;;5036035;28;20031;-70
2021/08/12 00:54:39;;;;;;;8.95;5.20;;;15.70;97.80;;;;;;5043427;28;20108;-71
2021/08/12 00:57:05;;;;;;;10.90;5.03;;;15.60;97.80;;;;;;5037208;28;20044;-70
2021/08/12 00:59:42;;;;;;;10.00;5.05;;;15.60;97.90;;;;;;5054109;28;20013;-72
2021/08/12 01:02:13;;;;;;;8.38;5.00;;;15.50;97.90;;;;;;5053252;28;20119;-72
2021/08/12 01:04:46;;;;;;;9.32;5.38;;;15.50;97.90;;;;;;5049144;28;20022;-71
2021/08/12 01:07:15;;;;;;;13.82;5.65;;;15.50;98.00;;;;;;5047226;28;20116;-71
2021/08/12 01:10:13;;;;;;;13.85;6.18;;;15.50;97.90;;;;;;5045621;28;20028;-72
2021/08/12 01:13:03;;;;;;;8.48;5.28;;;15.50;98.00;;;;;;5049505;28;20026;-71
2021/08/12 01:15:31;;;;;;;9.10;5.55;;;15.40;98.00;;;;;;5048672;28;20036;-72
2021/08/12 01:18:13;;;;;;;7.60;5.10;;;15.40;98.00;;;;;;5049906;28;20319;-72
2021/08/12 01:20:56;;;;;;;8.68;5.40;;;15.50;98.00;;;;;;5039923;28;20079;-72
2021/08/12 01:23:24;;;;;;;9.87;5.27;;;15.50;98.00;;;;;;5046633;28;20032;-72
2021/08/12 01:25:53;;;;;;;8.77;5.30;;;15.60;97.90;;;;;;5058798;28;20021;-72
2021/08/12 01:28:23;;;;;;;11.63;4.85;;;15.60;97.90;;;;;;5051029;28;20052;-71
2021/08/12 01:31:19;;;;;;;9.63;5.47;;;15.60;97.90;;;;;;5040970;28;20037;-71
2021/08/12 01:34:07;;;;;;;11.77;6.00;;;15.50;98.00;;;;;;5040992;28;20037;-71
2021/08/12 01:36:40;;;;;;;10.75;5.75;;;15.40;98.00;;;;;;5048749;28;20029;-72
2021/08/12 01:39:07;;;;;;;9.43;5.50;;;15.30;98.00;;;;;;5058587;28;20025;-71
2021/08/12 01:41:34;;;;;;;11.15;5.55;;;15.30;98.00;;;;;;5039620;28;20064;-72
2021/08/12 01:44:00;;;;;;;9.20;5.20;;;15.30;98.00;;;;;;5039541;28;20116;-72
2021/08/12 01:46:28;;;;;;;10.48;5.50;;;15.30;98.00;;;;;;5040594;28;20434;-72
2021/08/12 01:49:00;;;;;;;10.95;5.38;;;15.40;98.00;;;;;;5055696;28;20041;-72
2021/08/12 01:51:26;;;;;;;9.38;5.93;;;15.40;98.00;;;;;;5043435;28;20037;-72
2021/08/12 01:53:54;;;;;;;10.35;5.63;;;15.40;98.00;;;;;;5043540;28;20094;-71
2021/08/12 01:56:20;;;;;;;8.43;5.47;;;15.40;98.00;;;;;;5059067;28;20024;-72
2021/08/12 01:58:47;;;;;;;12.55;5.47;;;15.40;98.00;;;;;;5045341;28;20029;-72
2021/08/12 02:01:18;;;;;;;9.27;5.68;;;15.40;98.00;;;;;;5050540;28;20033;-72
2021/08/12 02:03:46;;;;;;;9.23;5.90;;;15.40;98.00;;;;;;5043696;28;20156;-72
2021/08/12 02:06:13;;;;;;;11.82;5.35;;;15.50;98.00;;;;;;5050434;28;20025;-71
2021/08/12 02:08:39;;;;;;;10.52;5.65;;;15.50;98.00;;;;;;5059082;28;20433;-72
2021/08/12 02:11:04;;;;;;;9.40;5.20;;;15.60;98.00;;;;;;5049190;28;20029;-72
2021/08/12 02:13:33;;;;;;;10.45;5.68;;;15.60;98.00;;;;;;5047577;28;20028;-72
2021/08/12 02:15:59;;;;;;;14.65;6.00;;;15.60;98.00;;;;;;5050632;28;20041;-72
2021/08/12 02:18:26;;;;;;;13.00;6.25;;;15.60;98.00;;;;;;5040159;28;20322;-72
2021/08/12 02:21:23;;;;;;;10.73;5.55;;;15.60;98.00;;;;;;5058947;28;20017;-72
2021/08/12 02:24:02;;;;;;;8.90;5.13;;;15.50;98.00;;;;;;5045595;28;20055;-71
2021/08/12 02:26:34;;;;;;;8.75;5.07;;;15.60;98.00;;;;;;5058794;28;20076;-71
2021/08/12 02:29:01;;;;;;;9.80;6.20;;;15.60;98.00;;;;;;5052014;28;20033;-71
2021/08/12 02:31:28;;;;;;;8.05;5.10;;;15.60;98.00;;;;;;5048528;28;20434;-71
2021/08/12 02:33:54;;;;;;;8.88;5.32;;;15.60;98.00;;;;;;5043692;28;20071;-72
2021/08/12 02:36:20;;;;;;;10.05;5.78;;;15.60;98.00;;;;;;5058377;28;20032;-71
2021/08/12 02:38:48;;;;;;;11.68;6.05;;;15.50;98.00;;;;;;5056312;28;20036;-72
2021/08/12 02:41:18;;;;;;;8.10;5.13;;;15.30;98.00;;;;;;5047060;28;20112;-71
2021/08/12 02:43:45;;;;;;;9.93;5.65;;;15.00;98.00;;;;;;5041591;28;20029;-71
2021/08/12 02:46:14;;;;;;;9.25;5.65;;;14.80;98.00;;;;;;5058479;28;20087;-71
2021/08/12 02:48:41;;;;;;;10.13;5.47;;;14.70;98.00;;;;;;5043588;28;20029;-72
2021/08/12 02:51:07;;;;;;;10.90;6.28;;;14.60;98.00;;;;;;5038359;28;20032;-71
2021/08/12 02:53:34;;;;;;;11.57;6.32;;;14.50;98.00;;;;;;5040345;28;20055;-71
2021/08/12 02:56:03;;;;;;;10.80;6.18;;;14.50;98.00;;;;;;5038417;28;20428;-71
2021/08/12 02:58:32;;;;;;;11.45;6.40;;;14.50;98.00;;;;;;5038038;28;20041;-71
2021/08/12 03:00:59;;;;;;;10.90;7.00;;;14.40;98.00;;;;;;5043481;28;20050;-71
2021/08/12 03:03:26;;;;;;;12.50;6.80;;;14.40;98.00;;;;;;5044774;28;20025;-71
2021/08/12 03:05:53;;;;;;;12.68;7.20;;;14.30;98.00;;;;;;5045722;28;20029;-72
2021/08/12 03:08:19;;;;;;;14.45;5.95;;;14.20;98.00;;;;;;5055019;28;20501;-71
2021/08/12 03:10:45;;;;;;;10.35;6.80;;;14.20;98.00;;;;;;5037861;28;20038;-71
2021/08/12 03:13:11;;;;;;;15.77;6.65;;;14.10;98.00;;;;;;5042848;28;20037;-71
2021/08/12 03:15:38;;;;;;;8.98;5.80;;;14.10;98.00;;;;;;5037949;28;20032;-71
2021/08/12 03:18:04;;;;;;;11.90;6.60;;;14.00;97.90;;;;;;5040180;28;20021;-72
2021/08/12 03:20:30;;;;;;;11.55;6.53;;;14.10;97.80;;;;;;5057452;28;20032;-71
2021/08/12 03:22:57;;;;;;;13.18;7.03;;;14.10;97.70;;;;;;5047292;28;20026;-71
2021/08/12 03:25:24;;;;;;;10.98;6.72;;;14.10;97.70;;;;;;5041346;28;20091;-71
2021/08/12 03:27:50;;;;;;;11.18;6.18;;;14.00;97.70;;;;;;5053216;28;20111;-71
2021/08/12 03:30:16;;;;;;;15.10;7.28;;;14.00;97.50;;;;;;5057053;28;20056;-71
2021/08/12 03:32:42;;;;;;;13.45;6.97;;;14.10;97.30;;;;;;5049174;28;20029;-71
2021/08/12 03:35:08;;;;;;;13.10;7.03;;;14.10;97.50;;;;;;5054839;28;20056;-71
2021/08/12 03:37:37;;;;;;;12.73;7.22;;;14.20;97.10;;;;;;5037299;28;20422;-71
2021/08/12 03:40:04;;;;;;;12.90;6.95;;;14.30;97.20;;;;;;5036428;28;20026;-71
2021/08/12 03:42:30;;;;;;;13.40;7.45;;;14.40;97.40;;;;;;5052234;28;20048;-71
2021/08/12 03:44:55;;;;;;;12.38;7.38;;;14.50;97.30;;;;;;5055927;28;20108;-70
2021/08/12 03:47:21;;;;;;;13.65;6.75;;;14.50;97.80;;;;;;5045628;28;20477;-70
2021/08/12 03:49:47;;;;;;;11.50;7.10;;;14.40;97.90;;;;;;5037148;28;20037;-70
2021/08/12 03:52:12;;;;;;;10.45;6.68;;;14.30;97.90;;;;;;5045532;28;20033;-70
2021/08/12 03:54:39;;;;;;;15.25;6.80;;;14.20;97.90;;;;;;5045356;28;20036;-72
2021/08/12 03:57:08;;;;;;;12.02;6.63;;;14.10;97.90;;;;;;5057021;28;20029;-72
2021/08/12 03:59:34;;;;;;;10.95;6.55;;;14.00;97.70;;;;;;5037607;28;20100;-72
2021/08/12 04:02:00;;;;;;;11.95;6.90;;;14.00;97.70;;;;;;5036895;28;20115;-71
2021/08/12 04:04:26;;;;;;;9.65;6.55;;;13.90;97.40;;;;;;5037128;28;20101;-72
2021/08/12 04:06:52;;;;;;;15.63;7.15;;;13.90;97.60;;;;;;5045657;28;20025;-72
2021/08/12 04:09:18;;;;;;;13.30;7.65;;;13.90;97.10;;;;;;5056622;28;20033;-72
2021/08/12 04:11:44;;;;;;;10.93;6.60;;;13.90;97.30;;;;;;5056285;28;20036;-72
2021/08/12 04:14:10;;;;;;;12.55;6.93;;;13.90;97.20;;;;;;5055558;28;20044;-71
2021/08/12 04:16:35;;;;;;;15.18;6.85;;;13.90;97.20;;;;;;5043468;28;20027;-71
2021/08/12 04:19:02;;;;;;;10.80;6.60;;;13.90;97.20;;;;;;5036655;28;20091;-71
2021/08/12 04:21:28;;;;;;;10.85;6.22;;;13.80;97.20;;;;;;5043729;28;20021;-71
2021/08/12 04:23:53;;;;;;;11.40;6.90;;;13.80;96.60;;;;;;5054782;28;20314;-71
2021/08/12 04:26:19;;;;;;;12.10;6.45;;;13.90;96.50;;;;;;5055731;28;20483;-71
2021/08/12 04:28:44;;;;;;;11.98;7.47;;;13.90;96.90;;;;;;5039205;28;20056;-71
2021/08/12 04:31:10;;;;;;;10.18;6.68;;;13.90;97.00;;;;;;5054436;28;20029;-71
2021/08/12 04:33:36;;;;;;;19.10;7.05;;;13.90;96.70;;;;;;5036459;28;20033;-71
2021/08/12 04:36:01;;;;;;;10.60;6.78;;;14.00;96.50;;;;;;5035293;28;20053;-71
2021/08/12 04:38:27;;;;;;;18.88;7.13;;;14.20;96.20;;;;;;5055580;28;20083;-73
2021/08/12 04:40:56;;;;;;;10.80;7.28;;;14.30;96.70;;;;;;5038220;28;20037;-71
2021/08/12 04:43:21;;;;;;;13.52;6.78;;;14.30;96.90;;;;;;5035122;28;20021;-71
2021/08/12 04:45:47;;;;;;;9.65;6.47;;;14.30;97.20;;;;;;5037506;28;20052;-71
2021/08/12 04:48:15;;;;;;;11.63;6.93;;;14.30;97.00;;;;;;5055863;28;20037;-72
2021/08/12 04:50:40;;;;;;;9.07;5.68;;;14.40;97.00;;;;;;5044355;28;20029;-71
2021/08/12 04:53:06;;;;;;;12.00;6.68;;;14.50;97.00;;;;;;5043552;28;20437;-71
2021/08/12 04:55:32;;;;;;;9.63;6.28;;;14.70;97.20;;;;;;5036047;28;20087;-71
2021/08/12 04:57:57;;;;;;;9.45;6.80;;;14.80;97.10;;;;;;5037808;28;20382;-71
2021/08/12 05:00:24;;;;;;;11.68;6.35;;;14.90;97.30;;;;;;5044250;28;20080;-71
2021/08/12 05:02:50;;;;;;;11.73;6.80;;;15.00;97.20;;;;;;5055949;28;20017;-71
2021/08/12 05:05:15;;;;;;;10.43;6.50;;;15.20;97.50;;;;;;5056136;28;20053;-71
2021/08/12 05:07:41;;;;;;;15.23;6.53;;;15.40;97.50;;;;;;5036196;28;20382;-71
2021/08/12 05:10:07;;;;;;;10.70;6.25;;;15.60;97.70;;;;;;5046711;28;20055;-71
2021/08/12 05:12:33;;;;;;;9.32;5.75;;;15.70;98.00;;;;;;5055205;28;20496;-72
2021/08/12 05:14:59;;;;;;;9.18;5.88;;;15.90;98.00;;;;;;5054316;28;20029;-71
2021/08/12 05:17:25;;;;;;;11.90;6.20;;;16.00;98.00;;;;;;5046126;28;20444;-71
2021/08/12 05:19:51;;;;;;;9.82;5.90;;;16.20;98.00;;;;;;5042815;28;20117;-72
2021/08/12 05:22:20;;;;;;;9.10;5.22;;;16.30;98.00;;;;;;5065038;28;20048;-71
2021/08/12 05:24:47;;;;;;;8.68;5.57;;;16.40;98.00;;;;;;5070355;28;20017;-71
2021/08/12 05:27:12;;;;;;;13.52;5.30;;;16.40;98.00;;;;;;5075736;28;20089;-71
2021/08/12 05:29:38;;;;;;;9.98;5.13;;;16.60;98.00;;;;;;5068493;28;20100;-71
2021/08/12 05:32:04;;;;;;;10.65;5.90;;;16.70;98.00;;;;;;5055645;28;20037;-71
2021/08/12 05:34:30;;;;;;;8.50;5.18;;;16.90;98.00;;;;;;5055425;28;20049;-71
2021/08/12 05:36:56;;;;;;;9.50;5.35;;;17.00;98.00;;;;;;5047143;28;20148;-71
2021/08/12 05:39:23;;;;;;;7.75;4.78;;;17.10;98.00;;;;;;5036439;28;20457;-71
2021/08/12 05:41:49;;;;;;;10.05;5.40;;;17.20;98.00;;;;;;5054563;28;20029;-71
2021/08/12 05:44:15;;;;;;;8.73;5.35;;;17.40;98.00;;;;;;5054329;28;20325;-72
2021/08/12 05:46:40;;;;;;;8.77;5.20;;;17.50;98.00;;;;;;5036667;28;20465;-72
2021/08/12 05:49:06;;;;;;;10.00;6.30;;;17.70;98.00;;;;;;5052809;28;20064;-71
2021/08/12 05:51:32;;;;;;;10.52;5.50;;;17.70;98.00;;;;;;5035787;28;20469;-71
2021/08/12 05:53:58;;;;;;;9.10;5.30;;;17.60;98.00;;;;;;5051049;28;20032;-71
2021/08/12 05:56:23;;;;;;;10.65;5.28;;;17.70;98.00;;;;;;5055344;28;20029;-71
2021/08/12 05:58:52;;;;;;;11.98;5.95;;;17.70;98.00;;;;;;5040227;28;20099;-72
2021/08/12 06:01:17;;;;;;;10.32;5.30;;;17.70;98.00;;;;;;5052740;28;20025;-71
2021/08/12 06:03:43;;;;;;;9.82;5.57;;;17.70;98.00;;;;;;5055731;28;20094;-71
2021/08/12 06:06:09;;;;;;;9.73;5.82;;;17.60;98.00;;;;;;5059167;28;20047;-72
2021/08/12 06:08:34;;;;;;;12.02;5.80;;;17.60;98.00;;;;;;5045207;28;20104;-72
2021/08/12 06:11:00;;;;;;;9.25;5.22;;;17.70;98.00;;;;;;5053718;28;20041;-71
2021/08/12 06:13:26;;;;;;;9.77;5.18;;;17.60;98.00;;;;;;5056114;28;20033;-71
2021/08/12 06:15:51;;;;;;;8.68;5.30;;;17.60;98.00;;;;;;5044663;28;20088;-71
2021/08/12 06:18:17;;;;;;;9.07;4.60;;;17.70;98.00;;;;;;5056774;28;20068;-72
2021/08/12 06:20:43;;;;;;;10.80;6.85;;;18.00;98.00;;;;;;5046519;28;20080;-71
2021/08/12 06:23:10;;;;;;;8.73;5.60;;;18.30;98.00;;;;;;5056133;28;20029;-72
2021/08/12 06:25:37;;;;;;;12.15;7.53;;;18.50;98.00;;;;;;5058829;28;20315;-73
2021/08/12 06:28:04;;;;;;;12.18;7.28;;;18.60;98.00;;;;;;5055774;28;20052;-71
2021/08/12 06:30:30;;;;;;;11.13;6.20;;;18.70;98.00;;;;;;5055527;28;20108;-72
2021/08/12 06:32:56;;;;;;;10.45;6.07;;;18.80;97.90;;;;;;5058586;28;20513;-72
2021/08/12 06:35:21;;;;;;;11.05;6.22;;;18.80;98.00;;;;;;5055001;28;20064;-72
2021/08/12 06:37:51;;;;;;;7.38;5.10;;;18.80;98.00;;;;;;5041534;28;20032;-71
2021/08/12 06:40:19;;;;;;;9.25;5.47;;;18.90;98.00;;;;;;5040740;28;20042;-71
2021/08/12 06:42:45;;;;;;;9.48;5.70;;;19.00;97.70;;;;;;5038423;28;20071;-71
2021/08/12 06:45:11;;;;;;;8.95;5.35;;;19.10;97.50;;;;;;5039938;28;20083;-71
2021/08/12 06:47:37;;;;;;;13.77;5.55;;;19.20;97.40;;;;;;5044911;28;20478;-71
2021/08/12 06:50:04;;;;;;;9.65;4.95;;;19.30;97.10;;;;;;5049167;28;20475;-73
2021/08/12 06:52:30;;;;;;;10.27;5.20;;;19.50;97.30;;;;;;5037252;28;20366;-73
2021/08/12 06:54:55;;;;;;;8.02;5.20;;;19.60;96.20;;;;;;5038519;28;20149;-72
2021/08/12 06:57:24;;;;;;;9.23;4.97;;;19.80;96.20;;;;;;5038073;28;20365;-72
2021/08/12 06:59:50;;;;;;;9.73;5.50;;;20.10;95.50;;;;;;5036089;28;20026;-73
2021/08/12 07:02:16;;;;;;;9.55;5.20;;;20.30;95.50;;;;;;5038030;28;20048;-72
2021/08/12 07:04:41;;;;;;;10.25;5.45;;;20.40;95.20;;;;;;5038049;28;20025;-73
2021/08/12 07:07:07;;;;;;;10.38;5.35;;;20.60;95.10;;;;;;5038248;28;20079;-72
2021/08/12 07:09:34;;;;;;;10.55;6.05;;;20.70;94.80;;;;;;5038050;28;20058;-72
2021/08/12 07:12:00;;;;;;;10.07;5.72;;;20.90;94.70;;;;;;5038087;28;20052;-72
2021/08/12 07:14:25;;;;;;;9.85;5.72;;;21.00;93.80;;;;;;5035797;28;20426;-71
2021/08/12 07:16:51;;;;;;;13.05;5.93;;;21.00;93.50;;;;;;5037769;28;20026;-72
2021/08/12 07:19:17;;;;;;;9.52;5.20;;;21.20;93.20;;;;;;5037841;28;20036;-71
2021/08/12 07:21:42;;;;;;;14.32;5.75;;;21.40;92.50;;;;;;5037770;28;20091;-72
2021/08/12 07:24:08;;;;;;;9.20;5.28;;;21.70;92.10;;;;;;5037856;28;20026;-72
2021/08/12 07:26:35;;;;;;;12.05;5.43;;;21.90;91.30;;;;;;5037815;28;20018;-72
2021/08/12 07:29:01;;;;;;;11.63;5.20;;;22.10;90.90;;;;;;5036251;28;20033;-72
2021/08/12 07:31:26;;;;;;;9.32;5.13;;;22.20;90.80;;;;;;5037712;28;20026;-72
2021/08/12 07:33:52;;;;;;;9.02;5.22;;;22.40;90.60;;;;;;5037278;28;20033;-72
2021/08/12 07:36:18;;;;;;;7.68;4.63;;;22.60;91.20;;;;;;5037617;28;20052;-73
2021/08/12 07:38:44;;;;;;;9.73;4.72;;;22.70;91.10;;;;;;5037449;28;20021;-72
2021/08/12 07:41:11;;;;;;;8.38;4.60;;;22.70;90.60;;;;;;5037383;28;20030;-73
2021/08/12 07:43:37;;;;;;;11.40;5.10;;;22.80;89.70;;;;;;5036153;28;20053;-72
2021/08/12 07:46:03;;;;;;;8.95;5.55;;;22.70;90.30;;;;;;5037243;28;20359;-73
2021/08/12 07:48:28;;;;;;;11.40;5.20;;;22.60;89.90;;;;;;5037314;28;20029;-72
2021/08/12 07:50:54;;;;;;;10.07;4.88;;;22.80;90.20;;;;;;5037310;28;20029;-72
2021/08/12 07:53:20;;;;;;;8.75;4.97;;;23.20;88.80;;;;;;5037228;28;20022;-72
2021/08/12 07:55:46;;;;;;;10.70;5.13;;;24.00;87.20;;;;;;5037295;28;20099;-72
2021/08/12 07:58:11;;;;;;;7.70;3.92;;;25.00;83.70;;;;;;5035789;28;20037;-73
2021/08/12 08:00:37;;;;;;;8.55;4.97;;;25.90;81.60;;;;;;5036979;28;20096;-72
2021/08/12 08:03:03;;;;;;;6.53;4.03;;;26.70;79.20;;;;;;5037113;28;20025;-73
2021/08/12 08:05:29;;;;;;;7.90;4.15;;;27.30;77.40;;;;;;5036948;28;20051;-72
2021/08/12 08:07:55;;;;;;;8.50;4.10;;;28.50;74.30;;;;;;5036945;28;20029;-72
2021/08/12 08:10:26;;;;;;;9.18;3.88;;;29.30;72.40;;;;;;5036821;28;20049;-72
2021/08/12 08:12:52;;;;;;;8.80;4.68;;;30.10;70.30;;;;;;5035699;28;20059;-73
2021/08/12 08:15:20;;;;;;;9.70;4.75;;;31.20;68.40;;;;;;5036675;28;20100;-72
2021/08/12 08:17:46;;;;;;;7.60;3.50;;;31.20;68.60;;;;;;5036668;28;20083;-72
2021/08/12 08:20:14;;;;;;;7.75;3.95;;;30.60;69.30;;;;;;5036935;28;20025;-72
2021/08/12 08:22:40;;;;;;;8.45;3.85;;;30.10;70.70;;;;;;5035925;28;20310;-73
2021/08/12 08:25:07;;;;;;;10.80;4.22;;;30.20;70.30;;;;;;5036764;28;20026;-73
2021/08/12 08:27:33;;;;;;;8.35;4.28;;;30.70;70.00;;;;;;5036570;28;20026;-72
2021/08/12 08:29:59;;;;;;;10.30;4.10;;;31.00;69.40;;;;;;5035241;28;20374;-72
2021/08/12 08:32:25;;;;;;;6.93;3.55;;;30.60;69.90;;;;;;5036676;28;20036;-72
2021/08/12 08:34:54;;;;;;;10.38;4.18;;;30.80;69.50;;;;;;5036382;28;20054;-73
2021/08/12 08:37:21;;;;;;;7.72;4.05;;;31.10;68.90;;;;;;5036431;28;20032;-72
2021/08/12 08:39:47;;;;;;;7.18;4.40;;;31.50;68.90;;;;;;5036401;28;20025;-72
2021/08/12 08:42:13;;;;;;;6.93;4.00;;;31.40;68.50;;;;;;5036396;28;20021;-73
2021/08/12 08:44:43;;;;;;;6.68;3.92;;;31.50;68.80;;;;;;5034991;28;20061;-72
2021/08/12 08:47:09;;;;;;;9.98;4.47;;;31.50;68.20;;;;;;5036332;28;20402;-72
2021/08/12 08:49:41;;;;;;;7.65;3.97;;;31.00;69.30;;;;;;5036257;28;20057;-72
2021/08/12 08:52:10;;;;;;;6.60;3.92;;;30.60;70.40;;;;;;5036422;28;20025;-72
2021/08/12 08:54:41;;;;;;;6.97;3.88;;;30.50;71.00;;;;;;5036153;28;20083;-73
2021/08/12 08:57:07;;;;;;;7.50;3.78;;;30.70;70.60;;;;;;5036049;28;20040;-72
2021/08/12 08:59:34;;;;;;;8.02;3.95;;;31.50;70.00;;;;;;5034906;28;20052;-72
2021/08/12 09:02:07;;;;;;;10.25;4.40;;;31.80;67.20;;;;;;5036090;28;20029;-72
2021/08/12 09:04:34;;;;;;;7.03;4.13;;;31.20;69.00;;;;;;5036167;28;20021;-73
2021/08/12 09:07:03;;;;;;;8.85;5.05;;;31.00;69.30;;;;;;5036084;28;20036;-72
2021/08/12 09:09:37;;;;;;;8.45;4.50;;;30.90;69.50;;;;;;5035822;28;20029;-73
2021/08/12 09:12:05;;;;;;;9.85;4.20;;;31.10;69.40;;;;;;5036082;28;20025;-72
2021/08/12 09:14:39;;;;;;;9.63;4.40;;;31.50;68.60;;;;;;5034737;28;20017;-72
2021/08/12 09:17:20;;;;;;;8.25;4.43;;;31.40;70.10;;;;;;5035943;28;20026;-72
2021/08/12 09:20:08;;;;;;;10.52;4.63;;;31.00;70.70;;;;;;5035848;28;20025;-72
2021/08/12 09:22:49;;;;;;;7.20;4.13;;;30.90;70.60;;;;;;5036018;28;20018;-72
2021/08/12 09:25:27;;;;;;;8.02;4.35;;;31.20;70.00;;;;;;5035795;28;20026;-72
2021/08/12 09:28:15;;;;;;;8.20;4.70;;;31.00;70.10;;;;;;5034625;28;20394;-72
2021/08/12 09:30:44;;;;;;;7.35;4.55;;;31.00;71.10;;;;;;5035636;28;20056;-72
2021/08/12 09:33:17;;;;;;;9.50;4.28;;;31.10;70.80;;;;;;5035902;28;20117;-72
2021/08/12 09:35:43;;;;;;;;;;;31.70;69.00;;;;;;5035968;28;20071;-71
2021/08/12 09:38:12;;;;;;;9.23;4.50;;;31.60;69.50;;;;;;5036897;28;20525;-71
2021/08/12 09:40:38;;;;;;;8.45;4.45;;;32.20;67.80;;;;;;5039770;28;20048;-71
2021/08/12 09:43:06;;;;;;;9.90;4.75;;;32.50;67.00;;;;;;5038334;28;20022;-71
2021/08/12 09:45:34;;;;;;;9.60;4.93;;;32.50;66.60;;;;;;5039499;28;20036;-72
2021/08/12 09:48:15;;;;;;;9.52;4.60;;;32.80;66.60;;;;;;5038511;28;20025;-73
2021/08/12 09:51:09;;;;;;;8.13;4.60;;;32.50;67.20;;;;;;5039534;28;20029;-73
2021/08/12 09:53:36;;;;;;;6.90;4.50;;;32.30;68.40;;;;;;5041004;28;20231;-73
2021/08/12 09:56:12;;;;;;;9.00;5.10;;;33.00;64.70;;;;;;5038627;28;20048;-73
2021/08/12 09:58:39;;;;;;;9.88;4.90;;;32.90;64.20;;;;;;5038144;28;20029;-72
2021/08/12 10:01:25;;;;;;;8.25;4.70;;;32.90;64.90;;;;;;5039295;28;20094;-72
2021/08/12 10:03:54;;;;;;;8.15;4.75;;;32.90;66.70;;;;;;5039239;28;20101;-72
2021/08/12 10:06:24;;;;;;;8.00;4.90;;;33.30;64.40;;;;;;5039344;28;20304;-72
2021/08/12 10:08:51;;;;;;;10.10;5.00;;;32.90;64.20;;;;;;5039200;28;20029;-72
2021/08/12 10:11:30;;;;;;;7.63;4.70;;;32.50;65.30;;;;;;5039219;28;20082;-72
2021/08/12 10:14:02;;;;;;;11.50;5.07;;;32.30;66.00;;;;;;5038012;28;20021;-72
2021/08/12 10:16:33;;;;;;;7.20;5.00;;;32.70;64.80;;;;;;5038826;28;20033;-72
2021/08/12 10:18:59;;;;;;;7.13;4.80;;;33.10;64.00;;;;;;5038971;28;20041;-72
2021/08/12 10:21:26;;;;;;;8.38;5.10;;;33.30;63.90;;;;;;5039020;28;20025;-72
2021/08/12 10:23:55;;;;;;;9.88;5.63;;;33.10;63.60;;;;;;5039018;28;20461;-72
2021/08/12 10:26:25;;;;;;;9.10;5.35;;;33.30;64.60;;;;;;5039049;28;20032;-72
2021/08/12 10:28:59;;;;;;;7.82;4.97;;;33.00;64.50;;;;;;5037473;28;20028;-72
2021/08/12 10:31:28;;;;;;;7.90;4.55;;;33.30;63.50;;;;;;5038713;28;20032;-71
2021/08/12 10:33:56;;;;;;;9.73;4.68;;;33.40;63.20;;;;;;5038710;28;20032;-71
2021/08/12 10:36:24;;;;;;;7.53;4.60;;;34.00;64.00;;;;;;5038614;28;20137;-71
2021/08/12 10:38:51;;;;;;;8.00;5.03;;;34.50;61.10;;;;;;5038610;28;20105;-71
2021/08/12 10:41:17;;;;;;;8.95;5.05;;;33.90;62.00;;;;;;5038478;28;20028;-71
2021/08/12 10:43:46;;;;;;;7.70;5.03;;;33.80;62.50;;;;;;5037421;28;20468;-71
2021/08/12 10:46:14;;;;;;;8.40;4.97;;;34.20;63.40;;;;;;5038600;28;20083;-71
2021/08/12 10:48:40;;;;;;;7.45;4.63;;;34.20;61.10;;;;;;5038046;28;20087;-71
2021/08/12 10:51:10;;;;;;;7.03;4.90;;;33.70;61.60;;;;;;5037479;28;20434;-71
2021/08/12 10:53:37;;;;;;;8.57;5.32;;;33.00;63.20;;;;;;5038371;28;20096;-71
2021/08/12 10:56:05;;;;;;;7.32;4.95;;;33.00;62.90;;;;;;5038149;28;20430;-71
2021/08/12 10:58:33;;;;;;;8.93;4.90;;;32.90;64.60;;;;;;5037246;28;20382;-71
2021/08/12 11:01:00;;;;;;;8.35;5.20;;;33.50;62.30;;;;;;5038118;28;20032;-71
2021/08/12 11:03:32;;;;;;;8.73;5.63;;;33.20;62.70;;;;;;5038158;28;20041;-71
2021/08/12 11:06:13;;;;;;;10.88;5.30;;;33.00;62.80;;;;;;5038221;28;20030;-72
2021/08/12 11:09:08;;;;;;;8.05;5.15;;;32.90;62.90;;;;;;5037950;28;20037;-72
2021/08/12 11:11:34;;;;;;;8.07;5.75;;;32.80;63.00;;;;;;5037898;28;20464;-72
2021/08/12 11:14:04;;;;;;;8.93;5.22;;;32.90;63.10;;;;;;5039773;28;20032;-72
2021/08/12 11:16:58;;;;;;;8.73;5.60;;;32.60;64.60;;;;;;5047922;28;20018;-72
2021/08/12 11:19:24;;;;;;;10.85;5.40;;;32.80;62.60;;;;;;5041601;28;20385;-71
2021/08/12 11:21:50;;;;;;;9.55;5.88;;;32.80;63.80;;;;;;5054491;28;20071;-72
2021/08/12 11:24:45;;;;;;;8.95;5.50;;;32.50;62.50;;;;;;5057874;28;20364;-71
2021/08/12 11:27:11;;;;;;;8.25;5.18;;;32.60;63.40;;;;;;5038107;28;20037;-71
2021/08/12 11:29:38;;;;;;;10.45;5.72;;;32.70;63.10;;;;;;5037533;28;20317;-72
2021/08/12 11:32:10;;;;;;;9.43;5.88;;;33.00;62.40;;;;;;5054360;28;20029;-71
2021/08/12 11:34:52;;;;;;;9.48;5.20;;;33.00;62.40;;;;;;5037463;28;20041;-71
2021/08/12 11:37:23;;;;;;;12.93;5.47;;;33.10;62.90;;;;;;5038534;28;20410;-71
2021/08/12 11:39:59;;;;;;;9.30;5.10;;;33.40;62.10;;;;;;5037580;28;20365;-71
2021/08/12 11:42:45;;;;;;;10.65;5.80;;;34.30;61.50;;;;;;5041395;28;20025;-71
2021/08/12 11:45:13;;;;;;;8.48;5.50;;;34.60;61.00;;;;;;5054737;28;20041;-72
2021/08/12 11:47:40;;;;;;;8.05;5.45;;;34.70;59.80;;;;;;5037213;28;20057;-71
2021/08/12 11:50:09;;;;;;;9.07;5.60;;;34.60;60.50;;;;;;5037350;28;20029;-71
2021/08/12 11:52:38;;;;;;;8.50;5.22;;;33.90;60.40;;;;;;5039386;28;20026;-71
2021/08/12 11:55:15;;;;;;;10.73;5.15;;;33.20;62.70;;;;;;5056865;28;20025;-71
2021/08/12 11:57:47;;;;;;;12.50;6.15;;;33.30;62.10;;;;;;5050240;28;20108;-71
2021/08/12 12:00:15;;;;;;;11.48;6.05;;;33.30;62.30;;;;;;5039607;28;20059;-70
2021/08/12 12:03:03;;;;;;;8.93;5.45;;;32.60;62.60;;;;;;5055961;28;20029;-71
2021/08/12 12:05:31;;;;;;;9.85;5.80;;;32.50;64.80;;;;;;5056102;28;20039;-71
2021/08/12 12:08:20;;;;;;;8.23;5.82;;;32.70;65.50;;;;;;5049065;28;20031;-71
2021/08/12 12:10:48;;;;;;;10.25;6.40;;;32.70;63.30;;;;;;5038932;28;20045;-71
2021/08/12 12:13:13;;;;;;;9.68;5.53;;;32.80;64.80;;;;;;5054714;28;20035;-71
2021/08/12 12:15:46;;;;;;;9.85;5.97;;;32.30;65.50;;;;;;5055449;28;20108;-70
2021/08/12 12:18:15;;;;;;;11.47;5.97;;;32.20;64.90;;;;;;5037684;28;20338;-70
2021/08/12 12:20:43;;;;;;;9.30;5.80;;;32.20;64.90;;;;;;5037861;28;20103;-71
2021/08/12 12:23:10;;;;;;;8.00;5.72;;;32.50;65.30;;;;;;5042171;28;20017;-71
2021/08/12 12:25:42;;;;;;;8.93;5.85;;;32.90;63.70;;;;;;5054626;28;20025;-72
2021/08/12 12:28:11;;;;;;;10.57;5.85;;;32.60;63.10;;;;;;5045598;28;20032;-71
2021/08/12 12:30:36;;;;;;;9.18;6.00;;;32.30;64.80;;;;;;5049691;28;20025;-70
2021/08/12 12:33:07;;;;;;;12.55;6.10;;;32.50;64.90;;;;;;5055609;28;20074;-70
2021/08/12 12:35:38;;;;;;;8.65;5.75;;;32.80;64.70;;;;;;5039279;28;20060;-70
2021/08/12 12:38:09;;;;;;;9.23;5.68;;;33.20;63.40;;;;;;5036289;28;20033;-70
2021/08/12 12:40:38;;;;;;;10.82;5.85;;;33.10;62.40;;;;;;5053583;28;20029;-71
2021/08/12 12:43:06;;;;;;;11.85;5.88;;;32.80;63.10;;;;;;5035198;28;20057;-72
2021/08/12 12:45:51;;;;;;;10.63;6.10;;;32.80;64.00;;;;;;5040736;28;20040;-71
2021/08/12 12:48:28;;;;;;;9.43;5.40;;;33.10;62.90;;;;;;5043689;28;20152;-72
2021/08/12 12:50:57;;;;;;;8.45;5.72;;;33.60;63.20;;;;;;5040585;28;20029;-72